Terminal Aerodrome Forecast
Issued by NWS

Home | Current Version | Previous Version | Graphics & Text | Print | Product List | Glossary On
Versions: 1 2 3 4 5 6 7 8 9 10 11 12 13 14 15 16 17 18 19 20 21
000
FTUS43 KGRB 281143 RRA
TAFAUW
TAF
KAUW 281143Z 2812/2912 15006KT 3SM BR BKN006 OVC012
      TEMPO 2812/2815 5SM TSRA BR BKN012 OVC025CB
     FM281500 19008KT P6SM VCSH BKN015 OVC050
     FM282100 20009KT P6SM VCSH SCT020 BKN035
      TEMPO 2823/2903 5SM TSRA BKN020CB
     FM290400 18004KT 6SM BR VCSH BKN015 BKN050
      TEMPO 2908/2912 3SM BR BKN006=

USA.gov is the U.S. government's official web portal to all federal, state and local government web resources and services.